Tour Pomerol — 9V9183 — position and weather

sailwx.info

Track history (hours):
 
Tides and Currents Weather Stations Pressure Air Temp Water Temp Dewpoint Dewpoint Depression Visibility Wind Speed Wind Dir Waves Ship Positions

Tour Pomerol

Last reported at 2014-Aug-11 21:12 UTC. Time now 2014-Sep-01 11:27 UTC.
Position N 27°13' W 014°22'.
Warning: this ship's position is 20 days out of date.

Length 120 m; draft 6.8 m.

Type: Tanker. MMSI: 563384980.

Date/timePositionNaut miles runAvg speedWind from/ knotsBaromVisibWave heightAir tempDewpointWater temp
2014-Aug-11 21:12N 27°13' W 014°22'1013.6
2014-Aug-11 20:27N 27°21' W 014°15'68813.4
2014-Aug-09 17:09N 35°59' W 005°23'610.3
2014-Aug-09 16:33N 35°54' W 005°18'1 0.7
2014-Aug-09 15:28N 35°54' W 005°19'0 0.0
2014-Aug-09 14:31N 35°54' W 005°19'0 0.0
2014-Aug-09 13:28N 35°54' W 005°19'0 0.0
2014-Aug-09 12:31N 35°54' W 005°19'0 0.0
2014-Aug-09 11:31N 35°54' W 005°19'0 0.0
2014-Aug-09 10:31N 35°54' W 005°19'0 0.0
2014-Aug-09 09:31N 35°54' W 005°19'0 0.0
2014-Aug-09 08:28N 35°54' W 005°19'0 0.0
2014-Aug-09 07:31N 35°54' W 005°19'0 0.0
2014-Aug-09 06:16N 35°54' W 005°19'0 0.0
2014-Aug-09 05:31N 35°54' W 005°19'0 0.0
2014-Aug-09 04:31N 35°54' W 005°19'0 0.0
2014-Aug-09 03:34N 35°54' W 005°19'2 1.6
2014-Aug-09 02:34N 35°55' W 005°18'15110.0
2014-Aug-08 11:30N 36°25' W 002°15'2210.6
2014-Aug-08 09:26N 36°39' W 001°53'1111.7
2014-Aug-08 08:31N 36°46' W 001°43'1112.0
2014-Aug-08 07:33N 36°53' W 001°32'1312.2
2014-Aug-08 06:31N 37°02' W 001°20'1212.0
2014-Aug-08 05:33N 37°09' W 001°09'1212.3
2014-Aug-08 04:33N 37°18' W 000°58'1313.1
2014-Aug-08 03:33N 37°26' W 000°45'1313.2
2014-Aug-08 02:33N 37°35' W 000°33'1312.8
2014-Aug-08 01:33N 37°45' W 000°23'1313.0
2014-Aug-08 00:32N 37°57' W 000°16'1212.4
2014-Aug-07 23:33N 38°07' W 000°07'1712.6
2014-Aug-07 22:13N 38°21' E 000°05'1312.4
2014-Aug-07 21:10N 38°32' E 000°14'1212.5
2014-Aug-07 20:13N 38°42' E 000°22'812.3
2014-Aug-07 19:33N 38°49' E 000°29'1612.4
2014-Aug-07 18:17N 39°01' E 000°41'1112.5
2014-Aug-07 17:26N 39°09' E 000°49'1312.0
2014-Aug-07 16:22N 39°20' E 000°59'1111.3
2014-Aug-07 15:23N 39°28' E 001°08'1411.5
2014-Aug-07 14:07N 39°40' E 001°20'711.3
2014-Aug-07 13:32N 39°45' E 001°25'1111.4
2014-Aug-07 12:34N 39°54' E 001°33'1312.4
2014-Aug-07 11:33N 40°04' E 001°43'1313.2
2014-Aug-07 10:33N 40°15' E 001°54'1313.0
2014-Aug-07 09:33N 40°25' E 002°04'1313.0
2014-Aug-07 08:33N 40°35' E 002°15'1313.0
2014-Aug-07 07:31N 40°46' E 002°25'1212.8
2014-Aug-07 06:33N 40°56' E 002°35'1313.0
2014-Aug-07 05:33N 41°06' E 002°46'1613.3
2014-Aug-07 04:20N 41°19' E 002°58'1012.4
2014-Aug-07 03:33N 41°27' E 003°06'1211.9
2014-Aug-07 02:33N 41°36' E 003°16'1312.9
2014-Aug-07 01:30N 41°47' E 003°27'1313.5
2014-Aug-07 00:32N 41°57' E 003°38'1313.4
2014-Aug-06 23:32N 42°08' E 003°49'1513.3
2014-Aug-06 22:25N 42°19' E 004°02'1312.4
2014-Aug-06 21:22N 42°29' E 004°13'1214.0
2014-Aug-06 20:31N 42°39' E 004°23'1312.8
2014-Aug-06 19:28N 42°49' E 004°35'1213.1
2014-Aug-06 18:33N 42°58' E 004°45'1312.9
2014-Aug-06 17:33N 43°08' E 004°57'1212.1
2014-Aug-06 16:33N 43°20' E 004°58'8 8.4
2014-Aug-06 15:33N 43°26' E 004°50'0 0.0
2014-Aug-06 14:22N 43°26' E 004°50'0 0.0
2014-Aug-06 13:31N 43°26' E 004°50'0 0.0
2014-Aug-06 12:28N 43°26' E 004°50'0 0.0
2014-Aug-06 11:31N 43°26' E 004°50'0 0.0
2014-Aug-06 10:31N 43°26' E 004°50'0 0.0
2014-Aug-06 09:31N 43°26' E 004°50'0 0.0
2014-Aug-06 08:34N 43°26' E 004°50'0 0.0
2014-Aug-06 07:33N 43°26' E 004°50'0 0.0
2014-Aug-06 06:28N 43°26' E 004°50'0 0.0
2014-Aug-06 05:31N 43°26' E 004°50'0 0.0
2014-Aug-06 04:31N 43°26' E 004°50'0 0.0
2014-Aug-06 03:28N 43°26' E 004°50'0 0.0
2014-Aug-06 02:31N 43°26' E 004°50'0 0.0
2014-Aug-06 01:28N 43°26' E 004°50'0 0.0
2014-Aug-06 00:31N 43°26' E 004°50'0 0.0
2014-Aug-05 23:31N 43°26' E 004°50'0 0.0
2014-Aug-05 22:34N 43°26' E 004°50'0 0.0
2014-Aug-05 21:34N 43°26' E 004°50'0 0.0
2014-Aug-05 20:34N 43°26' E 004°50'0 0.0
2014-Aug-05 19:34N 43°26' E 004°50'0 0.0
2014-Aug-05 18:34N 43°26' E 004°50'0 0.0
2014-Aug-05 17:34N 43°26' E 004°50'0 0.0
2014-Aug-05 16:34N 43°26' E 004°50'1 0.9
2014-Aug-05 15:34N 43°25' E 004°51'3 3.4
2014-Aug-05 14:34N 43°24' E 004°55'0 0.0
2014-Aug-05 13:34N 43°24' E 004°55'0 0.0
2014-Aug-05 12:34N 43°24' E 004°55'0 0.0
2014-Aug-05 11:34N 43°24' E 004°55'0 0.1
2014-Aug-05 10:33N 43°24' E 004°55'0 0.0
2014-Aug-05 09:33N 43°24' E 004°55'0 0.0
2014-Aug-05 08:34N 43°24' E 004°55'0 0.0
2014-Aug-05 07:34N 43°24' E 004°55'0 0.0
2014-Aug-05 06:34N 43°24' E 004°55'0 0.0
2014-Aug-05 05:34N 43°24' E 004°55'0 0.0
2014-Aug-05 04:34N 43°24' E 004°55'0 0.0
2014-Aug-05 03:34N 43°24' E 004°55'0 0.0
2014-Aug-05 02:34N 43°24' E 004°55'0 0.0
2014-Aug-05 01:33N 43°24' E 004°55'0 0.0
2014-Aug-05 00:34N 43°24' E 004°55'0 0.0
2014-Aug-04 23:34N 43°24' E 004°55'0 0.0
2014-Aug-04 22:34N 43°24' E 004°55'0 0.0
2014-Aug-04 21:34N 43°24' E 004°55'0 0.0
2014-Aug-04 20:34N 43°24' E 004°55'0 0.0
2014-Aug-04 19:34N 43°24' E 004°55'0 0.0
2014-Aug-04 18:34N 43°24' E 004°55'0 0.0
2014-Aug-04 17:34N 43°24' E 004°55'0 0.0
2014-Aug-04 16:34N 43°24' E 004°55'0 0.1
2014-Aug-04 15:34N 43°24' E 004°55'0 0.1
2014-Aug-04 14:34N 43°24' E 004°55'0 0.0
2014-Aug-04 13:33N 43°24' E 004°55'0 0.5
2014-Aug-04 12:34N 43°24' E 004°55'1 1.3
2014-Aug-04 11:32N 43°25' E 004°53'0 0.0
2014-Aug-04 10:29N 43°25' E 004°53'0 0.0
2014-Aug-04 09:25N 43°25' E 004°53'0 0.0
2014-Aug-04 08:31N 43°25' E 004°53'0 0.0
2014-Aug-04 07:34N 43°25' E 004°53'0 0.0
2014-Aug-04 06:27N 43°25' E 004°53'0 0.0
2014-Aug-04 05:32N 43°25' E 004°53'0 0.0
2014-Aug-04 04:32N 43°25' E 004°53'0 0.0
2014-Aug-04 03:32N 43°25' E 004°53'0 0.0
2014-Aug-04 02:34N 43°25' E 004°53'0 0.0
2014-Aug-04 01:28N 43°25' E 004°53'0 0.0
2014-Aug-04 00:34N 43°25' E 004°53'0 0.0
2014-Aug-03 23:34N 43°25' E 004°53'0 0.0
2014-Aug-03 22:34N 43°25' E 004°53'0 0.0
2014-Aug-03 21:34N 43°25' E 004°53'0 0.0
2014-Aug-03 20:34N 43°25' E 004°53'0 0.0
2014-Aug-03 19:34N 43°25' E 004°53'0 0.0
2014-Aug-03 18:33N 43°25' E 004°53'0 0.0
2014-Aug-03 17:34N 43°25' E 004°53'0 0.0
2014-Aug-03 11:33N 43°25' E 004°53'0 0.0
2014-Aug-03 10:34N 43°25' E 004°53'0 0.0
2014-Aug-03 09:34N 43°25' E 004°53'0 0.0
2014-Aug-03 08:34N 43°25' E 004°53'2 1.7
2014-Aug-03 07:34N 43°24' E 004°55'0 0.0
2014-Aug-03 06:34N 43°24' E 004°55'0 0.0
2014-Aug-03 05:34N 43°24' E 004°55'0 0.0
2014-Aug-03 04:34N 43°24' E 004°55'0 0.0
2014-Aug-03 03:33N 43°24' E 004°55'0 0.1
2014-Aug-03 02:34N 43°24' E 004°55'0 0.1
2014-Aug-03 01:34N 43°24' E 004°55'0 0.0
2014-Aug-03 00:34N 43°24' E 004°55'0 0.0
2014-Aug-02 23:34N 43°24' E 004°55'0 0.1
2014-Aug-02 22:34N 43°24' E 004°55'0 0.0
2014-Aug-02 21:34N 43°24' E 004°55'0 0.0
2014-Aug-02 20:34N 43°24' E 004°55'0 0.1
2014-Aug-02 19:34N 43°24' E 004°55'0 0.1
2014-Aug-02 18:34N 43°24' E 004°55'0 0.0
2014-Aug-02 17:34N 43°24' E 004°55'0 0.0
2014-Aug-02 16:34N 43°24' E 004°55'0 0.1
2014-Aug-02 15:34N 43°24' E 004°55'0 0.0
2014-Aug-02 14:31N 43°24' E 004°55'0 0.0
2014-Aug-02 13:28N 43°24' E 004°55'0 0.0
2014-Aug-02 12:33N 43°24' E 004°55'0 0.0
2014-Aug-02 11:34N 43°24' E 004°55'0 0.0
2014-Aug-02 10:32N 43°24' E 004°55'0 0.0
2014-Aug-02 09:32N 43°24' E 004°55'0 0.0
2014-Aug-02 08:32N 43°24' E 004°55'0 0.0
2014-Aug-02 07:32N 43°24' E 004°55'0 0.0
2014-Aug-02 06:32N 43°24' E 004°55'0 0.0
2014-Aug-02 05:32N 43°24' E 004°55'0 0.0
2014-Aug-02 04:33N 43°24' E 004°55'0 0.1
2014-Aug-02 03:33N 43°24' E 004°55'0 0.0
2014-Aug-02 02:33N 43°24' E 004°55'0 0.0
2014-Aug-02 01:33N 43°24' E 004°55'0 0.0
2014-Aug-02 00:33N 43°24' E 004°55'0 0.1
2014-Aug-01 23:33N 43°24' E 004°55'0 0.0
2014-Aug-01 22:33N 43°24' E 004°55'0 0.0
2014-Aug-01 21:33N 43°24' E 004°55'  
Track history (hours):
 
Tides and Currents Weather Stations Pressure Air Temp Water Temp Dewpoint Dewpoint Depression Visibility Wind Speed Wind Dir Waves Ship Positions

Tour Pomerol

Last reported at 2014-Aug-11 21:12 UTC. Time now 2014-Sep-01 11:27 UTC.
Position N 27°13' W 014°22'.
Warning: this ship's position is 20 days out of date.

Length 120 m; draft 6.8 m.

Type: Tanker. MMSI: 563384980.

Date/timePositionNaut miles runAvg speedWind from/ knotsBaromVisibWave heightAir tempDewpointWater temp
2014-Aug-11 21:12N 27°13' W 014°22'1013.6
2014-Aug-11 20:27N 27°21' W 014°15'68813.4
2014-Aug-09 17:09N 35°59' W 005°23'610.3
2014-Aug-09 16:33N 35°54' W 005°18'1 0.7
2014-Aug-09 15:28N 35°54' W 005°19'0 0.0
2014-Aug-09 14:31N 35°54' W 005°19'0 0.0
2014-Aug-09 13:28N 35°54' W 005°19'0 0.0
2014-Aug-09 12:31N 35°54' W 005°19'0 0.0
2014-Aug-09 11:31N 35°54' W 005°19'0 0.0
2014-Aug-09 10:31N 35°54' W 005°19'0 0.0
2014-Aug-09 09:31N 35°54' W 005°19'0 0.0
2014-Aug-09 08:28N 35°54' W 005°19'0 0.0
2014-Aug-09 07:31N 35°54' W 005°19'0 0.0
2014-Aug-09 06:16N 35°54' W 005°19'0 0.0
2014-Aug-09 05:31N 35°54' W 005°19'0 0.0
2014-Aug-09 04:31N 35°54' W 005°19'0 0.0
2014-Aug-09 03:34N 35°54' W 005°19'2 1.6
2014-Aug-09 02:34N 35°55' W 005°18'15110.0
2014-Aug-08 11:30N 36°25' W 002°15'2210.6
2014-Aug-08 09:26N 36°39' W 001°53'1111.7
2014-Aug-08 08:31N 36°46' W 001°43'1112.0
2014-Aug-08 07:33N 36°53' W 001°32'1312.2
2014-Aug-08 06:31N 37°02' W 001°20'1212.0
2014-Aug-08 05:33N 37°09' W 001°09'1212.3
2014-Aug-08 04:33N 37°18' W 000°58'1313.1
2014-Aug-08 03:33N 37°26' W 000°45'1313.2
2014-Aug-08 02:33N 37°35' W 000°33'1312.8
2014-Aug-08 01:33N 37°45' W 000°23'1313.0
2014-Aug-08 00:32N 37°57' W 000°16'1212.4
2014-Aug-07 23:33N 38°07' W 000°07'1712.6
2014-Aug-07 22:13N 38°21' E 000°05'1312.4
2014-Aug-07 21:10N 38°32' E 000°14'1212.5
2014-Aug-07 20:13N 38°42' E 000°22'812.3
2014-Aug-07 19:33N 38°49' E 000°29'1612.4
2014-Aug-07 18:17N 39°01' E 000°41'1112.5
2014-Aug-07 17:26N 39°09' E 000°49'1312.0
2014-Aug-07 16:22N 39°20' E 000°59'1111.3
2014-Aug-07 15:23N 39°28' E 001°08'1411.5
2014-Aug-07 14:07N 39°40' E 001°20'711.3
2014-Aug-07 13:32N 39°45' E 001°25'1111.4
2014-Aug-07 12:34N 39°54' E 001°33'1312.4
2014-Aug-07 11:33N 40°04' E 001°43'1313.2
2014-Aug-07 10:33N 40°15' E 001°54'1313.0
2014-Aug-07 09:33N 40°25' E 002°04'1313.0
2014-Aug-07 08:33N 40°35' E 002°15'1313.0
2014-Aug-07 07:31N 40°46' E 002°25'1212.8
2014-Aug-07 06:33N 40°56' E 002°35'1313.0
2014-Aug-07 05:33N 41°06' E 002°46'1613.3
2014-Aug-07 04:20N 41°19' E 002°58'1012.4
2014-Aug-07 03:33N 41°27' E 003°06'1211.9
2014-Aug-07 02:33N 41°36' E 003°16'1312.9
2014-Aug-07 01:30N 41°47' E 003°27'1313.5
2014-Aug-07 00:32N 41°57' E 003°38'1313.4
2014-Aug-06 23:32N 42°08' E 003°49'1513.3
2014-Aug-06 22:25N 42°19' E 004°02'1312.4
2014-Aug-06 21:22N 42°29' E 004°13'1214.0
2014-Aug-06 20:31N 42°39' E 004°23'1312.8
2014-Aug-06 19:28N 42°49' E 004°35'1213.1
2014-Aug-06 18:33N 42°58' E 004°45'1312.9
2014-Aug-06 17:33N 43°08' E 004°57'1212.1
2014-Aug-06 16:33N 43°20' E 004°58'8 8.4
2014-Aug-06 15:33N 43°26' E 004°50'0 0.0
2014-Aug-06 14:22N 43°26' E 004°50'0 0.0
2014-Aug-06 13:31N 43°26' E 004°50'0 0.0
2014-Aug-06 12:28N 43°26' E 004°50'0 0.0
2014-Aug-06 11:31N 43°26' E 004°50'0 0.0
2014-Aug-06 10:31N 43°26' E 004°50'0 0.0
2014-Aug-06 09:31N 43°26' E 004°50'0 0.0
2014-Aug-06 08:34N 43°26' E 004°50'0 0.0
2014-Aug-06 07:33N 43°26' E 004°50'0 0.0
2014-Aug-06 06:28N 43°26' E 004°50'0 0.0
2014-Aug-06 05:31N 43°26' E 004°50'0 0.0
2014-Aug-06 04:31N 43°26' E 004°50'0 0.0
2014-Aug-06 03:28N 43°26' E 004°50'0 0.0
2014-Aug-06 02:31N 43°26' E 004°50'0 0.0
2014-Aug-06 01:28N 43°26' E 004°50'0 0.0
2014-Aug-06 00:31N 43°26' E 004°50'0 0.0
2014-Aug-05 23:31N 43°26' E 004°50'0 0.0
2014-Aug-05 22:34N 43°26' E 004°50'0 0.0
2014-Aug-05 21:34N 43°26' E 004°50'0 0.0
2014-Aug-05 20:34N 43°26' E 004°50'0 0.0
2014-Aug-05 19:34N 43°26' E 004°50'0 0.0
2014-Aug-05 18:34N 43°26' E 004°50'0 0.0
2014-Aug-05 17:34N 43°26' E 004°50'0 0.0
2014-Aug-05 16:34N 43°26' E 004°50'1 0.9
2014-Aug-05 15:34N 43°25' E 004°51'3 3.4
2014-Aug-05 14:34N 43°24' E 004°55'0 0.0
2014-Aug-05 13:34N 43°24' E 004°55'0 0.0
2014-Aug-05 12:34N 43°24' E 004°55'0 0.0
2014-Aug-05 11:34N 43°24' E 004°55'0 0.1
2014-Aug-05 10:33N 43°24' E 004°55'0 0.0
2014-Aug-05 09:33N 43°24' E 004°55'0 0.0
2014-Aug-05 08:34N 43°24' E 004°55'0 0.0
2014-Aug-05 07:34N 43°24' E 004°55'0 0.0
2014-Aug-05 06:34N 43°24' E 004°55'0 0.0
2014-Aug-05 05:34N 43°24' E 004°55'0 0.0
2014-Aug-05 04:34N 43°24' E 004°55'0 0.0
2014-Aug-05 03:34N 43°24' E 004°55'0 0.0
2014-Aug-05 02:34N 43°24' E 004°55'0 0.0
2014-Aug-05 01:33N 43°24' E 004°55'0 0.0
2014-Aug-05 00:34N 43°24' E 004°55'0 0.0
2014-Aug-04 23:34N 43°24' E 004°55'0 0.0
2014-Aug-04 22:34N 43°24' E 004°55'0 0.0
2014-Aug-04 21:34N 43°24' E 004°55'0 0.0
2014-Aug-04 20:34N 43°24' E 004°55'0 0.0
2014-Aug-04 19:34N 43°24' E 004°55'0 0.0
2014-Aug-04 18:34N 43°24' E 004°55'0 0.0
2014-Aug-04 17:34N 43°24' E 004°55'0 0.0
2014-Aug-04 16:34N 43°24' E 004°55'0 0.1
2014-Aug-04 15:34N 43°24' E 004°55'0 0.1
2014-Aug-04 14:34N 43°24' E 004°55'0 0.0
2014-Aug-04 13:33N 43°24' E 004°55'0 0.5
2014-Aug-04 12:34N 43°24' E 004°55'1 1.3
2014-Aug-04 11:32N 43°25' E 004°53'0 0.0
2014-Aug-04 10:29N 43°25' E 004°53'0 0.0
2014-Aug-04 09:25N 43°25' E 004°53'0 0.0
2014-Aug-04 08:31N 43°25' E 004°53'0 0.0
2014-Aug-04 07:34N 43°25' E 004°53'0 0.0
2014-Aug-04 06:27N 43°25' E 004°53'0 0.0
2014-Aug-04 05:32N 43°25' E 004°53'0 0.0
2014-Aug-04 04:32N 43°25' E 004°53'0 0.0
2014-Aug-04 03:32N 43°25' E 004°53'0 0.0
2014-Aug-04 02:34N 43°25' E 004°53'0 0.0
2014-Aug-04 01:28N 43°25' E 004°53'0 0.0
2014-Aug-04 00:34N 43°25' E 004°53'0 0.0
2014-Aug-03 23:34N 43°25' E 004°53'0 0.0
2014-Aug-03 22:34N 43°25' E 004°53'0 0.0
2014-Aug-03 21:34N 43°25' E 004°53'0 0.0
2014-Aug-03 20:34N 43°25' E 004°53'0 0.0
2014-Aug-03 19:34N 43°25' E 004°53'0 0.0
2014-Aug-03 18:33N 43°25' E 004°53'0 0.0
2014-Aug-03 17:34N 43°25' E 004°53'0 0.0
2014-Aug-03 11:33N 43°25' E 004°53'0 0.0
2014-Aug-03 10:34N 43°25' E 004°53'0 0.0
2014-Aug-03 09:34N 43°25' E 004°53'0 0.0
2014-Aug-03 08:34N 43°25' E 004°53'2 1.7
2014-Aug-03 07:34N 43°24' E 004°55'0 0.0
2014-Aug-03 06:34N 43°24' E 004°55'0 0.0
2014-Aug-03 05:34N 43°24' E 004°55'0 0.0
2014-Aug-03 04:34N 43°24' E 004°55'0 0.0
2014-Aug-03 03:33N 43°24' E 004°55'0 0.1
2014-Aug-03 02:34N 43°24' E 004°55'0 0.1
2014-Aug-03 01:34N 43°24' E 004°55'0 0.0
2014-Aug-03 00:34N 43°24' E 004°55'0 0.0
2014-Aug-02 23:34N 43°24' E 004°55'0 0.1
2014-Aug-02 22:34N 43°24' E 004°55'0 0.0
2014-Aug-02 21:34N 43°24' E 004°55'0 0.0
2014-Aug-02 20:34N 43°24' E 004°55'0 0.1
2014-Aug-02 19:34N 43°24' E 004°55'0 0.1
2014-Aug-02 18:34N 43°24' E 004°55'0 0.0
2014-Aug-02 17:34N 43°24' E 004°55'0 0.0
2014-Aug-02 16:34N 43°24' E 004°55'0 0.1
2014-Aug-02 15:34N 43°24' E 004°55'0 0.0
2014-Aug-02 14:31N 43°24' E 004°55'0 0.0
2014-Aug-02 13:28N 43°24' E 004°55'0 0.0
2014-Aug-02 12:33N 43°24' E 004°55'0 0.0
2014-Aug-02 11:34N 43°24' E 004°55'0 0.0
2014-Aug-02 10:32N 43°24' E 004°55'0 0.0
2014-Aug-02 09:32N 43°24' E 004°55'0 0.0
2014-Aug-02 08:32N 43°24' E 004°55'0 0.0
2014-Aug-02 07:32N 43°24' E 004°55'0 0.0
2014-Aug-02 06:32N 43°24' E 004°55'0 0.0
2014-Aug-02 05:32N 43°24' E 004°55'0 0.0
2014-Aug-02 04:33N 43°24' E 004°55'0 0.1
2014-Aug-02 03:33N 43°24' E 004°55'0 0.0
2014-Aug-02 02:33N 43°24' E 004°55'0 0.0
2014-Aug-02 01:33N 43°24' E 004°55'0 0.0
2014-Aug-02 00:33N 43°24' E 004°55'0 0.1
2014-Aug-01 23:33N 43°24' E 004°55'0 0.0
2014-Aug-01 22:33N 43°24' E 004°55'0 0.0
2014-Aug-01 21:33N 43°24' E 004°55'  

Dump ship's entire track history